Time;durP1;ratioP1;P1;durP2;ratioP2;P2;SDS_P1;SDS_P2;PMS_P1;PMS_P2;Temp;Humidity;BMP_temperature;BMP_pressure;BME280_temperature;BME280_humidity;BME280_pressure;Samples;Min_cycle;Max_cycle;Signal;HPM_P1;HPM_P2
2022/03/28 00:01:36;;;;;;;14.13;5.78;;;2.90;99.90;;;;;;4948831;29;20355;-81
2022/03/28 00:04:01;;;;;;;19.08;6.75;;;2.90;99.90;;;;;;4953993;29;20030;-83
2022/03/28 00:06:27;;;;;;;17.05;6.47;;;2.90;99.90;;;;;;4948627;28;20385;-80
2022/03/28 00:08:53;;;;;;;13.05;5.53;;;2.80;99.90;;;;;;4947351;28;20548;-79
2022/03/28 00:11:19;;;;;;;15.55;6.80;;;2.80;99.90;;;;;;4946938;29;20571;-79
2022/03/28 00:13:45;;;;;;;11.35;5.35;;;2.80;99.90;;;;;;4932124;29;20486;-79
2022/03/28 00:16:12;;;;;;;13.38;5.93;;;2.70;99.90;;;;;;4947328;29;20034;-82
2022/03/28 00:18:38;;;;;;;16.13;5.75;;;2.90;99.90;;;;;;4947310;29;20075;-78
2022/03/28 00:21:03;;;;;;;14.75;5.63;;;2.90;99.90;;;;;;4931712;29;20460;-79
2022/03/28 00:23:32;;;;;;;14.57;6.20;;;2.90;99.90;;;;;;4947188;29;20091;-79
2022/03/28 00:25:59;;;;;;;16.58;6.57;;;2.90;99.90;;;;;;4946968;28;20115;-78
2022/03/28 00:28:25;;;;;;;12.77;5.45;;;2.80;99.90;;;;;;4945960;29;20035;-78
2022/03/28 00:30:50;;;;;;;13.85;6.25;;;2.70;99.90;;;;;;4946416;29;20548;-79
2022/03/28 00:33:16;;;;;;;14.10;6.57;;;2.70;99.90;;;;;;4930340;29;20031;-78
2022/03/28 00:35:42;;;;;;;14.05;5.47;;;3.00;99.90;;;;;;4946810;28;20515;-80
2022/03/28 00:38:09;;;;;;;16.42;6.05;;;3.20;99.90;;;;;;4932064;29;20031;-80
2022/03/28 00:40:35;;;;;;;15.70;6.53;;;3.90;99.90;;;;;;4946196;29;20032;-79
2022/03/28 00:43:03;;;;;;;12.63;5.47;;;3.30;99.90;;;;;;4932705;29;20032;-79
2022/03/28 00:45:31;;;;;;;15.25;5.15;;;3.30;99.90;;;;;;4915839;29;20028;-80
2022/03/28 00:47:57;;;;;;;14.45;6.22;;;3.10;99.90;;;;;;4946249;28;20396;-80
2022/03/28 00:50:23;;;;;;;9.52;5.57;;;2.90;99.90;;;;;;4945746;28;20098;-78
2022/03/28 00:52:49;;;;;;;11.55;5.50;;;2.70;99.90;;;;;;4931752;29;20110;-79
2022/03/28 00:55:15;;;;;;;10.88;5.13;;;2.50;99.90;;;;;;4946771;28;20516;-80
2022/03/28 00:57:41;;;;;;;12.55;5.47;;;2.40;99.90;;;;;;4932305;29;20040;-79
2022/03/28 01:00:09;;;;;;;12.82;5.00;;;2.30;99.90;;;;;;4942263;28;20441;-81
2022/03/28 01:02:35;;;;;;;11.27;5.13;;;2.30;99.90;;;;;;4928479;29;20397;-79
2022/03/28 01:05:01;;;;;;;10.93;5.00;;;2.40;99.90;;;;;;4927391;29;20040;-78
2022/03/28 01:07:28;;;;;;;12.70;6.28;;;2.50;99.90;;;;;;4913475;29;20040;-80
2022/03/28 01:09:56;;;;;;;16.75;5.95;;;2.60;99.90;;;;;;4912958;29;20029;-78
2022/03/28 01:12:25;;;;;;;8.85;4.93;;;2.40;99.90;;;;;;4895635;29;20397;-79
2022/03/28 01:14:51;;;;;;;13.40;5.93;;;2.30;99.90;;;;;;4911202;29;20492;-79
2022/03/28 01:20:02;;;;;;;21.83;7.88;;;2.20;99.90;;;;;;4913305;29;20047;-81
2022/03/28 01:22:27;;;;;;;15.27;5.95;;;2.10;99.90;;;;;;4912627;29;20536;-79
2022/03/28 01:24:58;;;;;;;15.20;6.43;;;2.10;99.90;;;;;;4911781;29;20119;-77
2022/03/28 01:27:25;;;;;;;13.35;5.93;;;2.10;99.90;;;;;;4926473;29;20036;-78
2022/03/28 01:29:51;;;;;;;16.60;7.38;;;2.10;99.90;;;;;;4895487;29;20520;-81
2022/03/28 01:32:16;;;;;;;15.20;5.95;;;2.20;99.90;;;;;;4895489;29;20039;-79
2022/03/28 01:34:42;;;;;;;18.13;6.50;;;2.10;99.90;;;;;;4926722;29;20032;-78
2022/03/28 01:37:08;;;;;;;16.17;5.78;;;1.90;99.90;;;;;;4913908;29;20032;-82
2022/03/28 01:39:33;;;;;;;12.40;5.82;;;1.70;99.90;;;;;;4938465;29;20528;-82
2022/03/28 01:41:59;;;;;;;11.00;6.95;;;1.70;99.90;;;;;;4935650;29;20036;-83
2022/03/28 01:44:26;;;;;;;14.82;6.22;;;1.60;99.90;;;;;;4937842;29;20020;-81
2022/03/28 01:46:53;;;;;;;15.38;6.70;;;1.50;99.90;;;;;;4939660;29;20102;-82
2022/03/28 01:49:20;;;;;;;10.60;6.78;;;1.40;99.90;;;;;;4968435;28;20115;-84
2022/03/28 01:51:47;;;;;;;20.05;8.48;;;1.40;99.90;;;;;;4925039;29;20016;-84
2022/03/28 01:54:14;;;;;;;11.95;6.65;;;1.60;99.90;;;;;;4940382;29;20020;-83
2022/03/28 01:56:41;;;;;;;16.38;7.18;;;1.90;99.90;;;;;;4941020;29;20040;-83
2022/03/28 01:59:33;;;;;;;14.20;5.40;;;1.90;99.90;;;;;;4925868;29;20042;-84
2022/03/28 02:02:20;;;;;;;14.95;6.28;;;2.20;99.90;;;;;;4940535;29;20017;-84
2022/03/28 02:05:23;;;;;;;12.48;5.40;;;1.90;99.90;;;;;;4941956;29;20089;-85
2022/03/28 02:08:10;;;;;;;13.32;7.10;;;1.90;99.90;;;;;;4941887;29;20043;-85
2022/03/28 02:10:35;;;;;;;15.75;6.82;;;0.30;99.90;;;;;;4941565;29;20096;-85
2022/03/28 02:13:04;;;;;;;14.23;6.18;;;-1.30;99.90;;;;;;4942027;29;20024;-85
2022/03/28 02:15:55;;;;;;;14.07;6.35;;;2.20;99.90;;;;;;4976673;28;20031;-86
2022/03/28 02:18:21;;;;;;;11.70;5.55;;;1.60;99.90;;;;;;4931888;28;20071;-84
2022/03/28 02:20:55;;;;;;;17.65;6.15;;;1.70;99.90;;;;;;4958985;28;20020;-84
2022/03/28 02:23:30;;;;;;;13.55;6.38;;;1.40;99.90;;;;;;4959228;28;20051;-83
2022/03/28 02:26:00;;;;;;;18.27;6.28;;;1.20;99.90;;;;;;4959108;28;20012;-84
2022/03/28 02:28:28;;;;;;;20.02;7.03;;;1.30;99.90;;;;;;4959856;28;20020;-83
2022/03/28 02:30:57;;;;;;;13.40;6.32;;;1.40;99.90;;;;;;4927347;29;20024;-83
2022/03/28 02:33:49;;;;;;;15.70;6.57;;;2.00;99.90;;;;;;4975664;28;20099;-84
2022/03/28 02:36:17;;;;;;;12.82;6.07;;;1.40;99.90;;;;;;4960495;28;20288;-84
2022/03/28 02:38:47;;;;;;;13.43;6.07;;;0.60;99.90;;;;;;4960156;29;20032;-84
2022/03/28 02:41:14;;;;;;;14.52;6.28;;;1.30;99.90;;;;;;4959414;28;20027;-83
2022/03/28 02:43:40;;;;;;;14.60;6.95;;;-1.40;99.90;;;;;;4975764;28;20087;-83
2022/03/28 02:46:07;;;;;;;16.67;6.25;;;1.20;99.90;;;;;;4975453;28;20008;-84
2022/03/28 02:48:36;;;;;;;14.32;5.30;;;1.70;99.90;;;;;;4960202;28;20036;-84
2022/03/28 02:51:09;;;;;;;15.88;5.93;;;1.70;99.90;;;;;;4960295;28;20079;-83
2022/03/28 02:53:36;;;;;;;15.15;6.38;;;1.30;99.90;;;;;;4960613;28;20038;-84
2022/03/28 02:56:04;;;;;;;17.13;6.32;;;1.80;99.90;;;;;;4975467;28;20026;-85
2022/03/28 02:58:39;;;;;;;13.13;5.82;;;1.30;99.90;;;;;;4975762;28;20054;-84
2022/03/28 03:01:05;;;;;;;13.30;5.20;;;1.40;99.90;;;;;;4943536;29;20039;-84
2022/03/28 03:03:36;;;;;;;14.20;5.63;;;1.20;99.90;;;;;;4975089;28;20016;-84
2022/03/28 03:06:02;;;;;;;12.93;5.43;;;1.20;99.90;;;;;;4943850;28;20115;-84
2022/03/28 03:08:32;;;;;;;16.75;6.85;;;1.10;99.90;;;;;;4960187;28;20087;-84
2022/03/28 03:10:58;;;;;;;18.67;6.25;;;0.80;99.90;;;;;;4960078;28;20019;-85
2022/03/28 03:13:25;;;;;;;20.05;8.43;;;1.30;99.90;;;;;;4960213;28;20048;-84
2022/03/28 03:15:51;;;;;;;16.00;5.57;;;0.80;99.90;;;;;;4975357;28;20016;-84
2022/03/28 03:18:17;;;;;;;14.82;5.88;;;0.60;99.90;;;;;;4931155;29;20031;-84
2022/03/28 03:20:45;;;;;;;14.25;6.20;;;0.80;99.90;;;;;;4947391;29;20034;-84
2022/03/28 03:23:11;;;;;;;14.93;6.20;;;0.70;99.90;;;;;;4963464;28;20063;-84
2022/03/28 03:25:38;;;;;;;15.82;6.05;;;0.40;99.90;;;;;;4979215;28;20032;-84
2022/03/28 03:28:05;;;;;;;19.33;5.78;;;-2.00;99.90;;;;;;4979555;28;20035;-85
2022/03/28 03:30:32;;;;;;;21.35;7.20;;;1.30;99.90;;;;;;4963418;28;20019;-84
2022/03/28 03:32:58;;;;;;;15.40;5.57;;;0.70;99.90;;;;;;4963093;28;20028;-83
2022/03/28 03:35:24;;;;;;;16.88;6.15;;;0.40;99.90;;;;;;4977667;28;20027;-85
2022/03/28 03:37:50;;;;;;;15.48;6.38;;;0.50;99.90;;;;;;4977986;28;20161;-83
2022/03/28 03:40:16;;;;;;;11.75;5.40;;;0.20;99.90;;;;;;4978772;29;20031;-85
2022/03/28 03:42:43;;;;;;;19.77;6.63;;;0.50;99.90;;;;;;4962736;29;20011;-84
2022/03/28 03:45:10;;;;;;;15.98;6.50;;;0.30;99.90;;;;;;4978670;28;20019;-84
2022/03/28 03:47:39;;;;;;;18.33;6.47;;;-2.50;99.90;;;;;;4979032;28;20020;-85
2022/03/28 03:50:25;;;;;;;18.45;7.50;;;0.40;99.90;;;;;;4963823;28;20072;-84
2022/03/28 03:52:54;;;;;;;13.65;6.45;;;0.30;99.90;;;;;;4947754;28;20008;-85
2022/03/28 03:55:20;;;;;;;17.45;6.55;;;0.60;99.90;;;;;;4979295;28;20016;-84
2022/03/28 03:57:49;;;;;;;16.63;6.32;;;0.30;99.90;;;;;;4979560;28;20108;-83
2022/03/28 04:00:29;;;;;;;16.45;6.43;;;0.20;99.90;;;;;;4947618;28;20015;-82
2022/03/28 04:02:54;;;;;;;19.42;7.07;;;-1.60;99.90;;;;;;4978547;28;20038;-83
2022/03/28 04:05:21;;;;;;;17.10;7.03;;;0.30;99.90;;;;;;4962951;28;20039;-82
2022/03/28 04:07:48;;;;;;;14.25;5.93;;;0.20;99.90;;;;;;4962539;28;20024;-83
2022/03/28 04:10:14;;;;;;;14.60;6.13;;;-0.90;99.90;;;;;;4930279;29;20027;-83
2022/03/28 04:12:39;;;;;;;17.48;6.20;;;0.50;99.90;;;;;;4962417;28;20016;-83
2022/03/28 04:15:06;;;;;;;14.98;6.00;;;-0.10;99.90;;;;;;4945429;29;20071;-82
2022/03/28 04:21:05;;;;;;;10.93;5.80;;;-0.10;99.90;;;;;;4924576;29;20031;-84
2022/03/28 04:23:35;;;;;;;18.52;5.95;;;-2.00;99.90;;;;;;4939108;29;20040;-83
2022/03/28 04:26:01;;;;;;;;;;;0.30;99.90;;;;;;4939423;29;20025;-84
2022/03/28 04:28:26;;;;;;;13.40;5.35;;;0.70;99.90;;;;;;4907073;29;19926;-83
2022/03/28 04:30:52;;;;;;;15.18;7.57;;;0.70;99.90;;;;;;4907113;29;20096;-84
2022/03/28 04:33:19;;;;;;;17.45;7.55;;;0.50;99.90;;;;;;4938350;29;20027;-84
2022/03/28 04:35:45;;;;;;;16.10;6.95;;;0.60;99.90;;;;;;4937781;29;20044;-84
2022/03/28 04:38:11;;;;;;;13.15;6.05;;;0.50;99.90;;;;;;4938194;29;20095;-84
2022/03/28 04:40:40;;;;;;;14.75;6.38;;;0.60;99.90;;;;;;4939069;29;20037;-84
2022/03/28 04:43:08;;;;;;;17.10;6.47;;;0.30;99.90;;;;;;4923406;29;20031;-84
2022/03/28 04:45:34;;;;;;;19.52;8.02;;;0.10;99.90;;;;;;4939552;29;20055;-84
2022/03/28 04:48:03;;;;;;;16.23;6.28;;;0.20;99.90;;;;;;4938826;29;20033;-85
2022/03/28 04:50:34;;;;;;;16.83;7.63;;;0.30;99.90;;;;;;4944516;28;20041;-83
2022/03/28 04:53:00;;;;;;;18.05;6.53;;;0.30;99.90;;;;;;4945774;28;20043;-84
2022/03/28 04:55:26;;;;;;;17.13;5.80;;;0.40;99.90;;;;;;4978522;28;20080;-84
2022/03/28 04:57:59;;;;;;;14.98;6.55;;;-0.80;99.90;;;;;;4978179;28;20026;-84
2022/03/28 05:00:25;;;;;;;23.48;7.03;;;-0.80;99.90;;;;;;4977168;28;20091;-84
2022/03/28 05:02:55;;;;;;;19.10;6.78;;;0.20;99.90;;;;;;4977744;28;20016;-83
2022/03/28 05:05:21;;;;;;;15.40;7.03;;;0.00;99.90;;;;;;4946028;28;20016;-82
2022/03/28 05:07:46;;;;;;;17.00;7.45;;;0.30;99.90;;;;;;4978195;28;20034;-84
2022/03/28 05:10:17;;;;;;;12.93;5.90;;;0.20;99.90;;;;;;4978146;28;20016;-84
2022/03/28 05:13:09;;;;;;;14.68;5.55;;;-1.80;99.90;;;;;;4946154;28;20091;-83
2022/03/28 05:15:34;;;;;;;12.82;6.30;;;-0.10;99.90;;;;;;4945211;29;20027;-83
2022/03/28 05:18:01;;;;;;;20.98;7.75;;;0.20;99.90;;;;;;4977045;28;20012;-83
2022/03/28 05:20:27;;;;;;;13.73;5.93;;;0.10;99.90;;;;;;4977240;28;20031;-83
2022/03/28 05:22:53;;;;;;;16.73;6.85;;;-0.10;99.90;;;;;;4943629;29;20036;-82
2022/03/28 05:25:36;;;;;;;17.60;6.97;;;0.10;99.90;;;;;;4976111;28;20042;-84
2022/03/28 05:28:02;;;;;;;15.82;6.38;;;0.50;99.90;;;;;;4945319;29;20079;-84
2022/03/28 05:30:28;;;;;;;18.20;7.05;;;0.10;99.90;;;;;;4962052;28;20019;-83
2022/03/28 05:32:55;;;;;;;13.93;6.57;;;-1.10;99.90;;;;;;4977022;28;20055;-84
2022/03/28 05:35:21;;;;;;;14.80;6.45;;;1.60;99.90;;;;;;4975442;28;20099;-84
2022/03/28 05:37:47;;;;;;;16.30;7.10;;;-0.80;99.90;;;;;;4977196;28;20032;-83
2022/03/28 05:40:14;;;;;;;20.02;7.28;;;0.50;99.90;;;;;;4954408;29;20020;-84
2022/03/28 05:42:46;;;;;;;16.67;6.15;;;0.40;99.90;;;;;;4926481;29;20016;-84
2022/03/28 05:45:14;;;;;;;18.08;6.97;;;0.90;99.90;;;;;;4942894;29;20043;-84
2022/03/28 05:48:00;;;;;;;17.55;7.70;;;1.80;99.90;;;;;;4926515;29;20016;-85
2022/03/28 05:50:49;;;;;;;15.77;6.60;;;0.50;99.90;;;;;;4926433;29;20029;-84
2022/03/28 05:53:15;;;;;;;16.55;7.13;;;0.50;99.90;;;;;;4943100;29;20034;-84
2022/03/28 05:55:43;;;;;;;13.35;5.70;;;0.60;99.90;;;;;;4926499;29;20051;-84
2022/03/28 05:58:13;;;;;;;17.20;6.78;;;-1.50;99.90;;;;;;4926127;29;20044;-85
2022/03/28 06:01:00;;;;;;;;;;;;;;;;;;;;;
2022/03/28 06:03:51;;;;;;;14.85;7.38;;;0.20;99.90;;;;;;4885574;29;20034;-84
2022/03/28 06:06:20;;;;;;;14.05;6.38;;;0.80;99.90;;;;;;4922437;29;20017;-84
2022/03/28 06:08:58;;;;;;;16.50;6.15;;;1.00;99.90;;;;;;4927182;29;20012;-84
2022/03/28 06:11:25;;;;;;;15.82;6.82;;;1.10;99.90;;;;;;4926223;29;20039;-84
2022/03/28 06:13:53;;;;;;;12.95;6.65;;;1.40;99.90;;;;;;4935510;29;20040;-84
2022/03/28 06:16:20;;;;;;;16.30;6.47;;;-1.40;99.90;;;;;;4907176;29;20040;-85
2022/03/28 06:18:45;;;;;;;16.20;6.80;;;1.50;99.90;;;;;;4906769;29;20095;-82
2022/03/28 06:21:16;;;;;;;19.80;7.90;;;1.60;99.90;;;;;;4906991;29;20028;-84
2022/03/28 06:24:17;;;;;;;17.25;7.10;;;2.40;99.90;;;;;;4907182;29;20016;-85
2022/03/28 06:26:43;;;;;;;18.20;6.32;;;1.70;99.90;;;;;;4904838;29;20029;-84
2022/03/28 06:29:11;;;;;;;19.75;6.60;;;3.50;99.90;;;;;;4906752;29;20024;-84
2022/03/28 06:31:39;;;;;;;20.95;7.55;;;3.40;99.90;;;;;;4922823;29;20021;-86
2022/03/28 06:34:09;;;;;;;15.30;7.03;;;3.90;99.90;;;;;;4905687;29;20019;-86
2022/03/28 06:36:36;;;;;;;15.57;7.20;;;4.20;99.90;;;;;;4911670;29;20036;-79
2022/03/28 06:39:03;;;;;;;18.25;6.97;;;4.30;99.90;;;;;;4904230;29;20096;-84
2022/03/28 06:41:29;;;;;;;26.45;8.00;;;4.50;99.90;;;;;;4917493;29;20029;-83
2022/03/28 06:43:54;;;;;;;15.02;7.03;;;4.40;99.90;;;;;;4897619;29;20055;-83
2022/03/28 06:46:20;;;;;;;15.05;7.10;;;4.50;99.90;;;;;;4880272;29;20029;-82
2022/03/28 06:48:47;;;;;;;20.08;7.20;;;4.50;99.90;;;;;;4907335;29;20016;-82
2022/03/28 06:51:13;;;;;;;16.38;6.85;;;4.50;99.90;;;;;;4896941;29;20504;-82
2022/03/28 06:53:38;;;;;;;19.25;8.25;;;4.60;99.90;;;;;;4936356;29;20021;-80
2022/03/28 06:56:05;;;;;;;17.52;6.63;;;4.80;99.90;;;;;;4934897;29;20055;-83
2022/03/28 06:58:31;;;;;;;18.13;7.38;;;5.00;99.90;;;;;;4907861;29;20157;-80
2022/03/28 07:00:56;;;;;;;16.65;7.10;;;5.20;99.90;;;;;;4905990;29;20028;-81
2022/03/28 07:03:22;;;;;;;18.00;8.30;;;5.30;99.90;;;;;;4904792;29;20060;-79
2022/03/28 07:05:48;;;;;;;19.15;7.55;;;5.40;99.90;;;;;;4889514;29;20024;-79
2022/03/28 07:08:13;;;;;;;21.05;7.75;;;5.50;99.90;;;;;;4906978;29;20064;-79
2022/03/28 07:10:39;;;;;;;23.17;7.55;;;5.70;99.90;;;;;;4913097;29;20033;-78
2022/03/28 07:13:05;;;;;;;18.98;8.35;;;5.80;99.90;;;;;;4894233;29;20056;-79
2022/03/28 07:15:31;;;;;;;19.98;7.65;;;6.00;99.90;;;;;;4933429;29;20055;-80
2022/03/28 07:18:02;;;;;;;19.77;7.80;;;6.30;99.90;;;;;;4916171;29;20036;-82
2022/03/28 07:20:29;;;;;;;33.15;10.32;;;6.80;99.90;;;;;;4935057;29;20039;-79
2022/03/28 07:22:56;;;;;;;28.90;9.93;;;7.20;99.90;;;;;;4928607;29;20024;-79
2022/03/28 07:25:24;;;;;;;25.33;10.00;;;7.40;99.90;;;;;;4943405;29;20032;-81
2022/03/28 07:27:52;;;;;;;23.52;9.70;;;7.60;99.90;;;;;;4909201;29;20044;-82
2022/03/28 07:30:18;;;;;;;23.80;10.80;;;7.70;99.90;;;;;;4931074;29;20043;-80
2022/03/28 07:32:46;;;;;;;36.15;12.88;;;8.00;99.90;;;;;;4915583;29;20028;-84
2022/03/28 07:35:14;;;;;;;48.15;16.80;;;8.30;99.90;;;;;;4943890;29;20032;-82
2022/03/28 07:37:41;;;;;;;44.85;15.93;;;8.40;99.90;;;;;;4938571;29;20035;-79
2022/03/28 07:40:08;;;;;;;40.92;13.77;;;8.60;99.90;;;;;;4941047;29;20196;-83
2022/03/28 07:42:35;;;;;;;41.20;15.15;;;8.70;99.90;;;;;;4919774;29;20109;-83
2022/03/28 07:45:02;;;;;;;44.10;18.10;;;8.90;99.90;;;;;;4935289;29;20091;-82
2022/03/28 07:47:28;;;;;;;49.92;16.95;;;9.20;99.90;;;;;;4903958;29;20052;-81
2022/03/28 07:49:55;;;;;;;49.95;16.60;;;9.40;99.90;;;;;;4932916;29;20024;-83
2022/03/28 07:52:21;;;;;;;59.33;18.15;;;9.50;99.90;;;;;;4929731;29;20200;-80
2022/03/28 07:54:48;;;;;;;43.63;15.00;;;9.70;99.90;;;;;;4928163;29;20115;-80
2022/03/28 07:57:14;;;;;;;83.13;21.38;;;9.90;99.90;;;;;;4926551;29;20024;-80
2022/03/28 07:59:46;;;;;;;46.88;16.65;;;10.10;99.90;;;;;;4925994;29;20059;-81
2022/03/28 08:02:12;;;;;;;32.53;11.18;;;10.40;99.90;;;;;;4913535;29;20028;-82
2022/03/28 08:04:38;;;;;;;26.27;11.20;;;10.60;99.90;;;;;;4935408;29;20119;-82
2022/03/28 08:07:08;;;;;;;21.63;9.60;;;10.80;99.90;;;;;;4939172;29;20063;-83
2022/03/28 08:09:37;;;;;;;31.10;9.75;;;11.00;99.90;;;;;;4935581;29;20024;-82
2022/03/28 08:12:05;;;;;;;26.40;8.23;;;11.30;99.10;;;;;;4934169;29;20509;-82
2022/03/28 08:14:31;;;;;;;21.17;9.55;;;11.60;96.10;;;;;;4920349;29;20489;-81
2022/03/28 08:16:58;;;;;;;21.75;7.82;;;11.90;92.40;;;;;;4934210;29;20028;-82
2022/03/28 08:19:24;;;;;;;15.80;7.63;;;12.20;91.60;;;;;;4931816;29;20106;-81
2022/03/28 08:21:50;;;;;;;16.35;7.63;;;12.40;90.30;;;;;;4930208;29;20032;-80
2022/03/28 08:24:16;;;;;;;19.33;8.98;;;12.60;87.70;;;;;;4937562;29;20039;-80
2022/03/28 08:26:42;;;;;;;15.00;7.30;;;12.60;89.20;;;;;;4918302;29;20036;-80
2022/03/28 08:29:09;;;;;;;16.80;8.25;;;13.10;82.20;;;;;;4930224;29;20122;-80
2022/03/28 08:31:35;;;;;;;17.38;8.10;;;13.10;80.20;;;;;;4915719;29;20048;-80
2022/03/28 08:34:01;;;;;;;15.13;7.47;;;13.20;80.80;;;;;;4904071;29;20087;-81
2022/03/28 08:36:26;;;;;;;27.73;9.02;;;13.70;80.60;;;;;;4916370;29;20398;-79
2022/03/28 08:38:52;;;;;;;18.05;7.82;;;13.90;75.10;;;;;;4928217;29;20032;-83
2022/03/28 08:41:19;;;;;;;24.40;10.35;;;14.00;74.00;;;;;;4910144;29;20028;-81
2022/03/28 08:43:46;;;;;;;25.75;10.45;;;14.00;73.80;;;;;;4898378;29;20389;-83
2022/03/28 08:46:13;;;;;;;15.10;8.02;;;14.20;73.00;;;;;;4895233;29;20122;-80
2022/03/28 08:48:40;;;;;;;20.50;8.82;;;14.30;73.60;;;;;;4895614;29;20031;-82
2022/03/28 08:51:12;;;;;;;31.17;11.48;;;14.50;73.00;;;;;;4930181;29;20039;-83
2022/03/28 08:53:40;;;;;;;24.55;10.10;;;14.90;71.20;;;;;;4905674;29;20032;-82
2022/03/28 08:56:08;;;;;;;18.38;8.02;;;14.90;70.30;;;;;;4928402;29;20032;-87
2022/03/28 08:58:34;;;;;;;15.73;8.13;;;14.90;70.60;;;;;;4896045;29;20509;-81
2022/03/28 09:01:01;;;;;;;19.23;9.25;;;14.90;69.80;;;;;;4897161;29;20020;-80
2022/03/28 09:03:39;;;;;;;18.55;8.27;;;14.70;68.40;;;;;;4917109;29;20123;-80
2022/03/28 09:06:28;;;;;;;17.75;8.15;;;14.60;69.30;;;;;;4920339;29;20099;-81
2022/03/28 09:08:53;;;;;;;21.73;8.67;;;14.60;69.70;;;;;;4898480;29;20056;-82
2022/03/28 09:11:20;;;;;;;19.52;8.15;;;14.50;69.40;;;;;;4919025;29;20028;-83
2022/03/28 09:14:28;;;;;;;20.63;8.35;;;14.60;68.80;;;;;;4894175;29;20136;-84
2022/03/28 09:17:04;;;;;;;15.18;8.23;;;14.40;67.90;;;;;;4897633;29;20658;-81
2022/03/28 09:19:45;;;;;;;19.08;8.05;;;14.40;68.20;;;;;;4908268;29;20037;-82
2022/03/28 09:22:25;;;;;;;20.30;9.60;;;14.80;68.40;;;;;;4908669;29;20036;-82
2022/03/28 09:24:53;;;;;;;19.20;9.10;;;14.70;67.50;;;;;;4904930;29;20032;-82
2022/03/28 09:27:27;;;;;;;20.98;8.13;;;14.60;67.10;;;;;;4899406;29;20031;-80
2022/03/28 09:30:03;;;;;;;20.75;8.95;;;14.70;66.90;;;;;;4930194;29;20135;-81
2022/03/28 09:32:32;;;;;;;19.55;8.43;;;14.80;67.30;;;;;;4897666;29;20481;-83
2022/03/28 09:35:08;;;;;;;16.30;7.73;;;14.90;66.70;;;;;;4896925;29;20033;-86
2022/03/28 09:38:01;;;;;;;17.08;8.02;;;15.00;67.60;;;;;;4892245;29;20029;-82
2022/03/28 09:40:43;;;;;;;20.88;9.40;;;15.20;66.10;;;;;;4894253;29;20036;-88
2022/03/28 09:43:14;;;;;;;18.50;8.05;;;15.50;66.20;;;;;;4893268;29;20477;-82
2022/03/28 09:45:40;;;;;;;17.35;7.57;;;15.50;65.40;;;;;;4895722;29;20053;-85
2022/03/28 09:48:11;;;;;;;17.55;7.65;;;15.70;65.60;;;;;;4893845;29;20059;-82
2022/03/28 09:50:43;;;;;;;16.30;8.13;;;16.00;64.70;;;;;;4893534;29;20059;-83
2022/03/28 09:53:18;;;;;;;19.20;9.00;;;16.20;64.20;;;;;;4892587;29;20179;-82
2022/03/28 09:56:08;;;;;;;18.45;8.20;;;16.60;61.90;;;;;;4893380;29;20524;-80
2022/03/28 09:58:49;;;;;;;16.85;8.13;;;16.70;62.50;;;;;;4891948;29;20522;-85
2022/03/28 10:01:30;;;;;;;18.27;9.05;;;16.50;62.50;;;;;;4891872;29;20104;-84
2022/03/28 10:04:05;;;;;;;19.88;8.63;;;16.60;61.60;;;;;;4891898;29;20047;-84
2022/03/28 10:06:32;;;;;;;19.38;9.38;;;16.70;62.80;;;;;;4891600;29;20080;-84
2022/03/28 10:08:58;;;;;;;17.60;8.07;;;16.80;61.40;;;;;;4893508;29;20163;-82
2022/03/28 10:11:25;;;;;;;19.70;8.73;;;17.10;61.20;;;;;;4900686;29;20040;-86
2022/03/28 10:13:51;;;;;;;25.77;8.82;;;17.00;60.00;;;;;;4898903;29;20138;-84
2022/03/28 10:16:17;;;;;;;17.70;8.43;;;17.20;60.50;;;;;;4927445;29;20032;-83
2022/03/28 10:18:47;;;;;;;18.60;8.73;;;17.20;59.40;;;;;;4911530;29;20054;-83
2022/03/28 10:21:29;;;;;;;15.48;8.30;;;17.50;59.40;;;;;;4933459;29;20127;-82
2022/03/28 10:23:59;;;;;;;13.68;7.32;;;17.40;56.80;;;;;;4932077;29;20032;-80
2022/03/28 10:26:29;;;;;;;18.20;7.72;;;17.50;58.40;;;;;;4917996;29;20028;-90
2022/03/28 10:29:08;;;;;;;;;;;17.60;58.60;;;;;;4924747;29;20481;-85
2022/03/28 10:31:55;;;;;;;19.30;8.18;;;17.60;58.50;;;;;;4893160;29;19997;-82
2022/03/28 10:34:43;;;;;;;20.65;9.18;;;17.80;57.10;;;;;;4906527;29;20028;-82
2022/03/28 10:37:29;;;;;;;18.52;8.05;;;18.00;57.50;;;;;;4923226;29;20032;-86
2022/03/28 10:40:17;;;;;;;20.23;9.25;;;18.10;56.00;;;;;;4923357;29;20051;-82
2022/03/28 10:43:07;;;;;;;15.98;7.78;;;18.00;56.30;;;;;;4923719;29;20075;-81
2022/03/28 10:45:41;;;;;;;16.77;7.47;;;18.30;56.00;;;;;;4925803;29;20035;-83
2022/03/28 10:48:08;;;;;;;17.08;8.45;;;18.40;55.10;;;;;;4925596;29;20038;-82
2022/03/28 10:50:34;;;;;;;19.50;7.80;;;18.40;53.30;;;;;;4922298;29;20046;-83
2022/03/28 10:53:16;;;;;;;17.65;7.68;;;18.30;53.80;;;;;;4919111;29;20437;-87
2022/03/28 10:56:29;;;;;;;15.15;7.97;;;18.30;52.90;;;;;;4930602;29;20030;-85
2022/03/28 10:59:01;;;;;;;15.65;7.90;;;18.40;52.90;;;;;;4913182;29;20072;-80
2022/03/28 11:01:27;;;;;;;16.35;8.63;;;18.20;52.90;;;;;;4908087;29;20027;-82
2022/03/28 11:03:54;;;;;;;13.95;8.68;;;18.30;52.60;;;;;;4939314;29;20008;-81
2022/03/28 11:06:44;;;;;;;14.32;7.57;;;18.50;52.90;;;;;;4939169;29;20032;-85
2022/03/28 11:09:34;;;;;;;13.38;6.75;;;17.70;51.40;;;;;;4911909;29;20139;-85
2022/03/28 11:12:10;;;;;;;17.67;7.90;;;18.60;52.10;;;;;;4932445;29;20051;-86
2022/03/28 11:14:51;;;;;;;14.45;8.00;;;18.50;51.90;;;;;;4938577;28;20055;-89
2022/03/28 11:17:31;;;;;;;14.73;6.65;;;18.70;51.90;;;;;;4913111;29;20032;-89
2022/03/28 11:20:09;;;;;;;14.05;7.95;;;19.00;51.60;;;;;;4912747;29;20131;-88
2022/03/28 11:23:11;;;;;;;13.48;7.72;;;19.10;52.90;;;;;;4913385;29;20111;-84
2022/03/28 11:25:57;;;;;;;15.65;7.47;;;19.30;51.80;;;;;;4944712;29;20063;-85
2022/03/28 11:28:26;;;;;;;12.68;7.03;;;19.20;50.90;;;;;;4930523;29;20067;-82
2022/03/28 11:30:55;;;;;;;11.17;6.90;;;19.20;49.70;;;;;;4939766;29;20035;-83
2022/03/28 11:33:24;;;;;;;14.05;6.60;;;19.20;49.30;;;;;;4930305;29;20027;-85
2022/03/28 11:36:14;;;;;;;13.82;6.82;;;19.20;48.90;;;;;;4912591;29;20579;-87
2022/03/28 11:38:55;;;;;;;13.70;7.72;;;20.20;49.40;;;;;;4913792;29;20632;-88
2022/03/28 11:41:25;;;;;;;18.73;7.25;;;19.60;47.80;;;;;;4924198;29;20032;-84
2022/03/28 11:43:55;;;;;;;11.65;6.07;;;19.60;49.00;;;;;;4945162;29;20028;-83
2022/03/28 11:46:25;;;;;;;13.90;6.10;;;19.40;48.30;;;;;;4946609;29;20016;-83
2022/03/28 11:48:54;;;;;;;15.45;8.20;;;19.20;48.10;;;;;;4947991;29;20028;-83
2022/03/28 11:51:20;;;;;;;;;;;19.20;48.20;;;;;;4942716;29;20064;-84
2022/03/28 11:53:46;;;;;;;12.27;6.45;;;19.40;47.70;;;;;;4897461;29;19915;-87
2022/03/28 11:56:22;;;;;;;10.98;5.63;;;19.60;48.30;;;;;;4929495;29;20028;-85
2022/03/28 11:58:48;;;;;;;12.95;6.22;;;20.00;47.40;;;;;;4914103;29;20469;-85
2022/03/28 12:01:15;;;;;;;11.52;5.93;;;20.70;46.80;;;;;;4913791;29;20039;-86
2022/03/28 12:03:49;;;;;;;14.57;6.28;;;21.20;45.60;;;;;;4945464;29;20509;-89
2022/03/28 12:06:46;;;;;;;13.48;7.10;;;21.10;44.20;;;;;;4915073;29;20131;-85
2022/03/28 12:09:16;;;;;;;13.27;6.97;;;21.60;44.20;;;;;;4901443;29;20036;-86
2022/03/28 12:11:50;;;;;;;11.45;6.32;;;22.00;42.90;;;;;;4945551;29;20383;-86
2022/03/28 12:14:17;;;;;;;13.05;7.05;;;21.80;42.80;;;;;;4944723;29;20485;-83
2022/03/28 12:16:46;;;;;;;14.40;6.57;;;21.90;43.60;;;;;;4914283;29;20036;-84
2022/03/28 12:19:28;;;;;;;14.45;7.38;;;22.00;43.10;;;;;;4916949;29;20044;-84
2022/03/28 12:21:57;;;;;;;12.60;7.32;;;21.60;41.00;;;;;;4943226;29;20027;-83
2022/03/28 12:24:25;;;;;;;10.65;6.28;;;22.10;42.90;;;;;;4943832;29;20038;-83
2022/03/28 12:26:53;;;;;;;13.07;5.90;;;22.30;40.70;;;;;;4943224;29;20032;-80
2022/03/28 12:29:19;;;;;;;15.13;6.75;;;22.90;40.40;;;;;;4912395;29;20039;-79
2022/03/28 12:31:47;;;;;;;10.05;5.82;;;22.50;41.30;;;;;;4944898;29;20087;-85
2022/03/28 12:34:14;;;;;;;13.07;6.88;;;22.90;41.40;;;;;;4945179;29;20232;-85
2022/03/28 12:36:40;;;;;;;12.38;6.15;;;23.10;41.60;;;;;;4944030;29;20386;-86
2022/03/28 12:39:10;;;;;;;12.52;6.10;;;22.50;39.40;;;;;;4912839;29;20358;-86
2022/03/28 12:41:40;;;;;;;12.70;5.95;;;22.80;40.50;;;;;;4946186;29;20031;-85
2022/03/28 12:44:12;;;;;;;11.18;6.22;;;23.00;41.00;;;;;;4915162;29;20457;-87
2022/03/28 12:46:38;;;;;;;13.45;5.03;;;22.60;39.90;;;;;;4915390;29;20115;-85
2022/03/28 12:49:14;;;;;;;11.32;5.75;;;22.80;40.10;;;;;;4914476;29;20182;-86
2022/03/28 12:51:40;;;;;;;10.23;6.15;;;23.00;39.00;;;;;;4914681;29;20159;-85
2022/03/28 12:54:07;;;;;;;13.23;5.97;;;23.50;39.80;;;;;;4931686;29;20432;-85
2022/03/28 12:56:49;;;;;;;10.85;6.72;;;23.50;39.50;;;;;;4914505;29;20031;-85
2022/03/28 12:59:21;;;;;;;8.38;5.32;;;24.00;40.10;;;;;;4915410;29;20563;-85
2022/03/28 13:01:48;;;;;;;8.52;5.63;;;24.10;39.40;;;;;;4915268;29;20082;-84
2022/03/28 13:04:17;;;;;;;12.65;6.22;;;23.70;40.60;;;;;;4915587;29;20028;-86
2022/03/28 13:06:50;;;;;;;13.23;6.43;;;23.30;39.50;;;;;;4915618;29;20035;-85